Time;durP1;ratioP1;P1;durP2;ratioP2;P2;SDS_P1;SDS_P2;PMS_P1;PMS_P2;Temp;Humidity;BMP_temperature;BMP_pressure;BME280_temperature;BME280_humidity;BME280_pressure;Samples;Min_cycle;Max_cycle;Signal;HPM_P1;HPM_P2
2021/03/31 00:02:07;;;;;;;11.20;5.00;;;8.20;50.60;;;;;;5024183;28;20466;-85
2021/03/31 00:04:33;;;;;;;7.90;5.80;;;8.10;50.90;;;;;;5034712;28;20481;-84
2021/03/31 00:06:59;;;;;;;7.90;5.63;;;8.00;50.90;;;;;;5026035;28;20458;-83
2021/03/31 00:09:26;;;;;;;7.60;5.93;;;7.90;50.90;;;;;;5025790;28;20447;-85
2021/03/31 00:11:53;;;;;;;8.67;5.70;;;7.90;51.20;;;;;;5026453;28;20459;-84
2021/03/31 00:14:20;;;;;;;13.80;5.83;;;7.80;51.30;;;;;;5026224;28;20454;-85
2021/03/31 00:16:46;;;;;;;8.40;5.30;;;7.80;51.40;;;;;;5018535;28;20458;-84
2021/03/31 00:19:13;;;;;;;7.00;5.83;;;7.80;51.60;;;;;;5017252;28;20570;-84
2021/03/31 00:21:39;;;;;;;7.30;6.13;;;7.70;51.70;;;;;;5017163;28;20567;-84
2021/03/31 00:24:06;;;;;;;8.17;6.57;;;7.70;51.80;;;;;;5014278;28;20455;-85
2021/03/31 00:26:33;;;;;;;8.13;6.03;;;7.80;52.30;;;;;;5016082;28;20559;-85
2021/03/31 00:28:59;;;;;;;8.37;6.20;;;7.70;52.20;;;;;;5014339;28;20482;-84
2021/03/31 00:31:26;;;;;;;9.17;6.10;;;7.70;52.50;;;;;;5009523;28;20537;-85
2021/03/31 00:33:53;;;;;;;9.80;6.80;;;7.60;52.60;;;;;;5015357;28;20486;-88
2021/03/31 00:36:19;;;;;;;8.33;5.57;;;7.50;52.80;;;;;;5014490;28;20598;-85
2021/03/31 00:38:46;;;;;;;10.10;6.37;;;7.50;52.90;;;;;;5011501;28;20506;-85
2021/03/31 00:41:14;;;;;;;7.77;6.20;;;7.50;53.10;;;;;;5014742;28;20589;-84
2021/03/31 00:43:40;;;;;;;14.90;6.57;;;7.50;53.20;;;;;;5011527;28;20498;-86
2021/03/31 00:46:07;;;;;;;10.20;5.87;;;7.60;53.00;;;;;;5012386;28;20500;-85
2021/03/31 00:48:34;;;;;;;9.13;6.40;;;7.50;53.20;;;;;;5014586;28;20466;-84
2021/03/31 00:51:02;;;;;;;8.40;6.67;;;7.40;53.30;;;;;;5019178;28;20448;-84
2021/03/31 00:53:31;;;;;;;8.57;6.10;;;7.50;53.60;;;;;;5015770;28;20803;-87
2021/03/31 00:55:58;;;;;;;7.20;6.03;;;7.40;53.60;;;;;;5023119;28;20451;-85
2021/03/31 00:58:24;;;;;;;6.53;5.50;;;7.40;53.60;;;;;;5033088;28;21013;-88
2021/03/31 01:00:51;;;;;;;10.13;5.53;;;7.30;53.60;;;;;;5031308;28;20550;-87
2021/03/31 01:03:18;;;;;;;12.53;5.40;;;7.40;53.80;;;;;;5035128;28;20458;-86
2021/03/31 01:05:47;;;;;;;7.77;5.73;;;7.30;53.70;;;;;;5031869;28;20467;-88
2021/03/31 01:08:14;;;;;;;7.90;5.70;;;7.20;53.80;;;;;;5031057;28;20455;-85
2021/03/31 01:10:43;;;;;;;10.80;6.33;;;7.30;53.90;;;;;;5019186;28;20455;-85
2021/03/31 01:13:46;;;;;;;7.97;5.60;;;7.30;54.10;;;;;;5021217;28;20458;-84
2021/03/31 01:16:25;;;;;;;9.40;6.80;;;7.10;54.20;;;;;;5017080;28;21184;-85
2021/03/31 01:18:57;;;;;;;9.50;6.50;;;7.10;54.60;;;;;;5014970;28;20520;-85
2021/03/31 01:22:00;;;;;;;13.47;5.83;;;7.10;54.70;;;;;;5025439;28;20473;-86
2021/03/31 01:25:03;;;;;;;6.83;5.60;;;7.10;55.00;;;;;;5030755;28;20510;-88
2021/03/31 01:27:42;;;;;;;8.43;6.00;;;7.00;55.20;;;;;;5024209;28;20442;-84
2021/03/31 01:30:18;;;;;;;9.80;6.30;;;7.10;55.40;;;;;;5023704;28;20450;-85
2021/03/31 01:33:01;;;;;;;6.60;5.67;;;6.90;55.20;;;;;;5005761;28;20500;-85
2021/03/31 01:35:31;;;;;;;10.43;6.80;;;6.90;55.60;;;;;;5014876;28;20982;-85
2021/03/31 01:38:02;;;;;;;9.67;5.83;;;6.90;55.90;;;;;;5018245;28;20600;-84
2021/03/31 01:40:30;;;;;;;13.43;6.70;;;7.00;55.90;;;;;;5014831;28;20828;-83
2021/03/31 01:43:00;;;;;;;7.80;6.10;;;6.80;55.80;;;;;;5018922;28;20456;-85
2021/03/31 01:45:30;;;;;;;7.27;6.50;;;6.80;56.20;;;;;;5021321;28;20444;-82
2021/03/31 01:48:00;;;;;;;8.23;6.57;;;6.70;56.30;;;;;;5009104;28;20806;-84
2021/03/31 01:50:32;;;;;;;11.17;6.13;;;6.60;56.70;;;;;;5016099;28;20465;-85
2021/03/31 01:53:00;;;;;;;11.00;6.40;;;6.60;56.80;;;;;;5011875;28;20467;-86
2021/03/31 01:55:28;;;;;;;7.70;6.10;;;6.60;57.10;;;;;;5014180;28;20500;-85
2021/03/31 01:57:56;;;;;;;8.10;6.57;;;6.50;57.40;;;;;;5011831;28;20466;-86
2021/03/31 02:00:23;;;;;;;9.57;6.00;;;6.50;57.50;;;;;;5013708;28;21115;-79
2021/03/31 02:02:54;;;;;;;8.67;6.30;;;6.60;57.50;;;;;;5013231;28;20523;-81
2021/03/31 02:05:21;;;;;;;8.63;5.83;;;6.70;57.60;;;;;;5009678;28;20451;-80
2021/03/31 02:07:49;;;;;;;8.73;6.17;;;6.90;57.40;;;;;;5013275;28;20451;-83
2021/03/31 02:10:17;;;;;;;7.50;5.50;;;7.00;57.00;;;;;;5014581;28;20821;-79
2021/03/31 02:12:45;;;;;;;6.37;5.77;;;6.90;56.80;;;;;;5013953;28;20563;-86
2021/03/31 02:15:17;;;;;;;11.60;5.77;;;6.70;56.90;;;;;;5013352;28;20487;-83
2021/03/31 02:17:45;;;;;;;10.73;6.00;;;6.60;57.10;;;;;;5013432;28;20514;-85
2021/03/31 02:20:15;;;;;;;8.30;6.63;;;6.40;57.60;;;;;;5013970;28;20464;-80
2021/03/31 02:22:43;;;;;;;10.00;6.40;;;6.40;57.60;;;;;;5014818;28;20480;-80
2021/03/31 02:25:12;;;;;;;9.33;6.33;;;6.30;57.90;;;;;;5017390;28;20481;-79
2021/03/31 02:27:39;;;;;;;13.27;6.50;;;6.20;58.00;;;;;;5019659;28;20595;-81
2021/03/31 02:30:08;;;;;;;6.63;5.80;;;6.10;58.20;;;;;;5021564;28;20860;-79
2021/03/31 02:32:36;;;;;;;9.23;6.50;;;6.10;58.40;;;;;;5020015;28;20477;-79
2021/03/31 02:35:03;;;;;;;8.63;6.00;;;6.10;58.70;;;;;;5021679;28;20485;-79
2021/03/31 02:37:30;;;;;;;8.43;6.27;;;6.00;58.70;;;;;;5031850;28;20548;-88
2021/03/31 02:39:57;;;;;;;8.43;6.17;;;6.10;59.00;;;;;;5033559;28;20509;-81
2021/03/31 02:42:26;;;;;;;10.13;6.80;;;6.00;59.10;;;;;;5033301;28;20550;-84
2021/03/31 02:44:56;;;;;;;8.87;6.10;;;5.90;59.20;;;;;;5021207;28;20595;-82
2021/03/31 02:47:26;;;;;;;9.50;6.77;;;5.90;59.40;;;;;;5011119;28;20445;-84
2021/03/31 02:49:57;;;;;;;8.30;6.50;;;6.00;59.30;;;;;;5012517;28;20541;-78
2021/03/31 02:52:24;;;;;;;8.23;6.00;;;5.90;59.50;;;;;;5017006;28;21039;-78
2021/03/31 02:54:52;;;;;;;10.20;5.87;;;5.90;59.60;;;;;;5020362;28;20490;-78
2021/03/31 02:57:20;;;;;;;11.33;7.27;;;5.90;59.80;;;;;;5016592;28;20778;-79
2021/03/31 02:59:48;;;;;;;9.43;6.33;;;5.90;59.90;;;;;;5015240;28;20471;-81
2021/03/31 03:02:16;;;;;;;7.40;6.23;;;5.80;59.90;;;;;;5024326;28;20953;-79
2021/03/31 03:04:45;;;;;;;8.30;6.80;;;5.90;60.30;;;;;;5015203;28;20449;-79
2021/03/31 03:07:12;;;;;;;12.33;6.33;;;5.90;60.80;;;;;;5010362;28;20546;-79
2021/03/31 03:09:39;;;;;;;7.40;6.63;;;5.90;60.30;;;;;;5013686;28;20447;-79
2021/03/31 03:12:08;;;;;;;8.83;5.93;;;5.90;60.50;;;;;;5013655;28;20593;-78
2021/03/31 03:14:34;;;;;;;8.90;6.17;;;5.80;60.60;;;;;;5018616;28;20488;-79
2021/03/31 03:17:02;;;;;;;12.00;7.30;;;5.80;60.70;;;;;;5017762;28;20453;-78
2021/03/31 03:19:29;;;;;;;8.60;6.50;;;5.70;61.10;;;;;;5013243;28;20494;-80
2021/03/31 03:21:55;;;;;;;14.60;7.07;;;5.70;61.40;;;;;;5014564;28;20490;-79
2021/03/31 03:24:24;;;;;;;10.83;5.87;;;5.80;61.40;;;;;;5014448;28;20474;-81
2021/03/31 03:26:51;;;;;;;9.00;6.30;;;5.80;61.60;;;;;;5018265;28;20538;-84
2021/03/31 03:29:18;;;;;;;10.20;6.40;;;5.80;61.60;;;;;;5016728;28;20515;-79
2021/03/31 03:31:45;;;;;;;11.07;6.40;;;5.80;61.90;;;;;;5013469;28;20462;-82
2021/03/31 03:34:13;;;;;;;9.63;6.70;;;5.70;62.10;;;;;;5013226;28;20550;-79
2021/03/31 03:36:41;;;;;;;28.97;7.00;;;5.60;62.20;;;;;;5014535;28;20445;-79
2021/03/31 03:39:08;;;;;;;14.60;6.70;;;5.60;62.60;;;;;;5014415;28;20482;-79
2021/03/31 03:41:35;;;;;;;8.87;6.47;;;5.60;62.60;;;;;;5018498;28;20565;-78
2021/03/31 03:44:01;;;;;;;10.27;6.27;;;5.50;62.80;;;;;;5016386;28;20451;-83
2021/03/31 03:46:31;;;;;;;7.80;6.40;;;5.60;63.50;;;;;;5021673;28;21012;-79
2021/03/31 03:48:58;;;;;;;10.30;6.60;;;5.60;63.40;;;;;;5030513;28;20455;-79
2021/03/31 03:51:25;;;;;;;8.30;6.03;;;5.80;63.80;;;;;;5032005;28;20462;-86
2021/03/31 03:53:52;;;;;;;7.60;5.77;;;5.80;63.20;;;;;;5032424;28;20517;-90
2021/03/31 03:56:19;;;;;;;15.07;6.23;;;5.70;62.70;;;;;;5025464;28;20561;-79
2021/03/31 03:58:45;;;;;;;9.53;6.30;;;5.60;63.00;;;;;;5019223;28;20530;-80
2021/03/31 04:01:11;;;;;;;7.27;5.73;;;5.50;63.30;;;;;;5017274;28;20535;-80
2021/03/31 04:03:38;;;;;;;7.53;6.17;;;5.50;63.60;;;;;;5024440;28;20987;-83
2021/03/31 04:06:05;;;;;;;9.80;6.90;;;5.40;63.60;;;;;;5018505;28;20489;-80
2021/03/31 04:08:32;;;;;;;9.80;6.40;;;5.50;63.60;;;;;;5015445;28;21036;-81
2021/03/31 04:11:00;;;;;;;8.43;6.20;;;5.60;63.70;;;;;;5018407;28;20528;-80
2021/03/31 04:13:29;;;;;;;7.97;5.47;;;5.60;63.50;;;;;;5017677;28;20454;-81
2021/03/31 04:15:59;;;;;;;7.93;6.27;;;5.50;63.80;;;;;;5018901;28;20522;-80
2021/03/31 04:18:27;;;;;;;7.33;6.20;;;5.40;63.70;;;;;;5013144;28;20992;-79
2021/03/31 04:20:54;;;;;;;14.30;7.50;;;5.40;63.90;;;;;;5019620;28;21011;-80
2021/03/31 04:23:21;;;;;;;10.67;6.37;;;5.30;64.30;;;;;;5019525;28;20494;-80
2021/03/31 04:25:48;;;;;;;8.37;5.93;;;5.20;64.60;;;;;;5017257;28;20461;-80
2021/03/31 04:28:17;;;;;;;7.80;5.50;;;5.30;64.70;;;;;;5016401;28;20481;-82
2021/03/31 04:30:43;;;;;;;7.20;6.50;;;5.20;64.90;;;;;;5016896;28;20470;-79
2021/03/31 04:33:12;;;;;;;10.10;6.50;;;5.20;65.10;;;;;;5015349;28;20450;-80
2021/03/31 04:35:38;;;;;;;8.57;5.87;;;5.30;65.20;;;;;;5015279;28;20447;-79
2021/03/31 04:38:09;;;;;;;10.70;6.37;;;5.40;65.00;;;;;;5011718;28;20615;-79
2021/03/31 04:40:49;;;;;;;16.70;6.47;;;5.30;64.50;;;;;;4996868;28;20484;-78
2021/03/31 04:43:16;;;;;;;8.20;5.70;;;5.20;64.90;;;;;;5000654;28;20453;-79
2021/03/31 04:45:43;;;;;;;10.43;6.67;;;5.20;65.30;;;;;;5014838;28;20453;-79
2021/03/31 04:48:09;;;;;;;8.37;6.07;;;5.20;65.00;;;;;;5018703;28;20501;-81
2021/03/31 04:50:36;;;;;;;12.20;6.53;;;5.30;65.50;;;;;;5017659;28;20490;-79
2021/03/31 04:53:02;;;;;;;7.77;6.37;;;5.20;65.40;;;;;;5019772;28;20442;-79
2021/03/31 04:55:29;;;;;;;7.90;6.60;;;5.40;65.60;;;;;;5020691;28;20554;-80
2021/03/31 04:57:55;;;;;;;8.37;6.50;;;5.30;65.40;;;;;;5025049;28;20469;-82
2021/03/31 05:00:23;;;;;;;9.83;6.90;;;5.40;65.20;;;;;;5015707;28;21026;-84
2021/03/31 05:02:50;;;;;;;9.73;6.33;;;5.40;65.10;;;;;;5016926;28;20462;-80
2021/03/31 05:05:17;;;;;;;9.03;6.53;;;5.30;65.20;;;;;;5016296;28;20468;-80
2021/03/31 05:07:43;;;;;;;11.07;6.67;;;5.30;65.50;;;;;;5009767;28;20897;-81
2021/03/31 05:10:10;;;;;;;11.20;6.70;;;5.40;65.60;;;;;;5007239;28;20875;-85
2021/03/31 05:12:36;;;;;;;9.00;5.93;;;5.40;65.40;;;;;;5017582;28;20556;-79
2021/03/31 05:15:03;;;;;;;7.40;6.07;;;5.60;65.00;;;;;;5010347;28;20488;-85
2021/03/31 05:17:30;;;;;;;11.03;6.67;;;5.60;64.60;;;;;;5012252;28;20527;-79
2021/03/31 05:19:57;;;;;;;13.60;6.30;;;5.70;64.40;;;;;;5009523;28;20509;-83
2021/03/31 05:22:23;;;;;;;11.47;7.27;;;5.70;64.50;;;;;;5013028;28;20468;-80
2021/03/31 05:24:49;;;;;;;11.43;7.20;;;5.90;64.70;;;;;;5013769;28;20960;-79
2021/03/31 05:27:16;;;;;;;8.10;7.30;;;5.90;64.20;;;;;;5016962;28;20470;-80
2021/03/31 05:29:42;;;;;;;13.60;7.47;;;6.00;64.10;;;;;;5018755;28;20461;-82
2021/03/31 05:32:10;;;;;;;9.50;6.80;;;6.00;63.60;;;;;;5015615;28;20985;-80
2021/03/31 05:34:37;;;;;;;7.97;6.70;;;6.10;63.50;;;;;;5015204;28;20501;-81
2021/03/31 05:37:05;;;;;;;9.47;6.50;;;6.20;62.70;;;;;;5015526;28;20457;-80
2021/03/31 05:39:31;;;;;;;8.80;6.07;;;6.20;62.40;;;;;;5015761;28;20486;-82
2021/03/31 05:41:58;;;;;;;11.10;6.67;;;6.20;62.20;;;;;;5015526;28;20569;-81
2021/03/31 05:44:24;;;;;;;7.80;6.27;;;6.30;61.90;;;;;;5016310;28;20446;-82
2021/03/31 05:46:53;;;;;;;8.63;6.30;;;6.30;61.80;;;;;;5014896;28;20507;-80
2021/03/31 05:51:54;;;;;;;12.63;6.43;;;6.60;61.60;;;;;;5036104;28;20718;-81
2021/03/31 05:54:23;;;;;;;20.63;7.23;;;6.60;61.10;;;;;;5044881;28;20472;-81
2021/03/31 05:56:51;;;;;;;15.83;6.23;;;6.70;61.00;;;;;;5044455;28;20489;-82
2021/03/31 05:59:18;;;;;;;9.47;6.77;;;6.80;60.70;;;;;;5039510;28;20518;-82
2021/03/31 06:01:46;;;;;;;9.57;6.57;;;6.90;60.40;;;;;;5035934;28;20456;-81
2021/03/31 06:04:15;;;;;;;16.67;6.70;;;7.00;60.30;;;;;;5036638;28;20453;-82
2021/03/31 06:06:41;;;;;;;11.67;5.97;;;7.10;59.90;;;;;;5033559;28;20454;-81
2021/03/31 06:09:10;;;;;;;13.13;6.90;;;7.20;59.60;;;;;;5030621;28;20461;-82
2021/03/31 06:11:51;;;;;;;13.20;6.40;;;7.30;59.40;;;;;;5030591;28;20571;-82
2021/03/31 06:14:40;;;;;;;7.40;5.97;;;7.30;59.10;;;;;;5033759;28;20811;-81
2021/03/31 06:17:09;;;;;;;9.73;6.60;;;7.40;59.00;;;;;;5031962;28;20458;-82
2021/03/31 06:19:38;;;;;;;12.33;6.10;;;7.60;58.80;;;;;;5049343;28;20545;-83
2021/03/31 06:22:12;;;;;;;7.50;6.10;;;7.90;58.50;;;;;;5046632;28;20785;-81
2021/03/31 06:24:46;;;;;;;16.37;6.43;;;8.00;58.40;;;;;;5039743;28;20467;-81
2021/03/31 06:27:13;;;;;;;9.70;6.43;;;8.10;57.80;;;;;;5034665;28;20542;-81
2021/03/31 06:29:43;;;;;;;9.33;7.10;;;8.20;57.30;;;;;;5039570;28;20478;-82
2021/03/31 06:32:19;;;;;;;11.17;6.60;;;8.40;57.20;;;;;;5036796;28;20471;-81
2021/03/31 06:34:57;;;;;;;12.33;6.43;;;8.60;56.60;;;;;;5037412;28;20530;-81
2021/03/31 06:37:24;;;;;;;9.00;6.80;;;8.90;56.20;;;;;;5034962;28;20462;-81
2021/03/31 06:39:52;;;;;;;10.50;7.03;;;9.00;55.70;;;;;;5034575;28;20521;-82
2021/03/31 06:42:20;;;;;;;13.20;7.77;;;9.10;55.20;;;;;;5033722;28;20737;-82
2021/03/31 06:44:58;;;;;;;7.70;6.90;;;9.30;54.90;;;;;;5036227;28;20450;-82
2021/03/31 06:47:28;;;;;;;10.73;6.57;;;9.50;54.50;;;;;;5036206;28;20454;-82
2021/03/31 06:49:56;;;;;;;7.97;6.80;;;9.60;54.10;;;;;;5034261;28;21116;-82
2021/03/31 06:52:22;;;;;;;11.33;7.37;;;9.80;54.00;;;;;;5036681;28;20821;-80
2021/03/31 06:54:50;;;;;;;11.47;8.40;;;10.00;53.00;;;;;;5039196;28;20501;-80
2021/03/31 06:57:25;;;;;;;13.53;8.00;;;10.10;52.40;;;;;;5036734;28;20530;-81
2021/03/31 07:00:00;;;;;;;14.27;7.70;;;10.20;52.50;;;;;;5031702;28;20495;-83
2021/03/31 07:02:28;;;;;;;14.00;8.03;;;10.30;52.00;;;;;;5034466;28;20457;-82
2021/03/31 07:04:55;;;;;;;19.87;8.20;;;10.40;52.00;;;;;;5032521;28;20485;-82
2021/03/31 07:07:30;;;;;;;10.63;7.83;;;10.30;51.30;;;;;;5034235;28;20859;-83
2021/03/31 07:12:42;;;;;;;22.83;9.30;;;10.80;51.30;;;;;;5368257;22;20485;-87
2021/03/31 07:15:10;;;;;;;18.03;7.50;;;10.90;50.80;;;;;;5042977;28;20438;-86
2021/03/31 07:17:40;;;;;;;18.13;8.87;;;11.00;50.20;;;;;;5040574;28;20846;-87
2021/03/31 07:22:50;;;;;;;15.37;7.97;;;11.30;49.70;;;;;;5478712;22;20514;-87
2021/03/31 07:25:18;;;;;;;15.90;8.37;;;11.40;49.50;;;;;;5024134;28;20487;-86
2021/03/31 07:38:44;;;;;;;15.80;10.10;;;11.90;48.00;;;;;;5030870;28;20480;-82
2021/03/31 07:41:11;;;;;;;16.63;7.73;;;12.10;48.00;;;;;;5028226;28;20885;-78
2021/03/31 07:43:40;;;;;;;11.87;7.87;;;12.30;47.60;;;;;;5031529;28;20482;-81
2021/03/31 07:46:11;;;;;;;19.67;9.98;;;12.40;47.50;;;;;;5032137;28;20794;-77
2021/03/31 07:48:39;;;;;;;13.70;8.30;;;12.60;47.60;;;;;;5029893;28;20192;-77
2021/03/31 07:51:16;;;;;;;11.40;8.07;;;12.70;46.90;;;;;;5035691;28;21712;-78
2021/03/31 07:53:44;;;;;;;23.97;9.00;;;13.10;46.80;;;;;;5036136;28;20513;-81
2021/03/31 07:56:14;;;;;;;19.90;8.17;;;13.20;46.40;;;;;;5029350;28;20481;-79
2021/03/31 07:58:41;;;;;;;11.30;9.10;;;13.30;46.00;;;;;;5032856;28;20646;-78
2021/03/31 08:01:10;;;;;;;13.48;8.77;;;13.50;45.90;;;;;;5028115;28;20442;-78
2021/03/31 08:03:39;;;;;;;17.63;8.70;;;13.60;45.70;;;;;;5029530;28;20552;-80
2021/03/31 08:06:11;;;;;;;13.33;8.00;;;13.70;45.30;;;;;;5029571;28;20207;-79
2021/03/31 08:08:55;;;;;;;17.90;8.33;;;13.90;45.20;;;;;;5042638;28;20451;-79
2021/03/31 08:11:55;;;;;;;16.08;8.13;;;13.90;45.00;;;;;;5043478;28;20437;-81
2021/03/31 08:14:41;;;;;;;83.87;15.27;;;14.00;44.70;;;;;;5016381;28;20191;-80
2021/03/31 08:17:09;;;;;;;42.70;10.77;;;14.10;44.70;;;;;;5029763;28;20448;-80
2021/03/31 08:19:39;;;;;;;21.73;8.63;;;14.30;44.70;;;;;;5032101;28;20208;-79
2021/03/31 08:22:28;;;;;;;16.70;8.40;;;14.30;44.50;;;;;;5029049;28;20455;-79
2021/03/31 08:24:57;;;;;;;12.33;8.10;;;14.40;44.50;;;;;;5024136;28;20442;-80
2021/03/31 08:27:24;;;;;;;15.60;8.03;;;14.60;44.10;;;;;;5025636;28;20472;-77
2021/03/31 08:29:54;;;;;;;12.37;8.73;;;14.80;44.00;;;;;;5031818;28;20444;-81
2021/03/31 08:32:22;;;;;;;12.07;7.93;;;14.90;44.00;;;;;;5023238;28;20452;-79
2021/03/31 08:34:49;;;;;;;23.73;10.10;;;15.10;43.50;;;;;;5019800;28;20459;-82
2021/03/31 08:37:22;;;;;;;11.93;8.67;;;15.10;43.40;;;;;;5012355;28;20589;-77
2021/03/31 08:39:48;;;;;;;11.47;8.00;;;15.10;43.20;;;;;;5013616;28;20499;-80
2021/03/31 08:42:16;;;;;;;26.93;9.80;;;15.20;43.30;;;;;;5010569;28;20457;-79
2021/03/31 08:44:47;;;;;;;21.70;9.40;;;15.40;43.20;;;;;;5011528;28;20570;-79
2021/03/31 08:47:16;;;;;;;24.63;10.07;;;15.50;43.10;;;;;;5004450;28;21029;-81
2021/03/31 08:49:44;;;;;;;17.57;8.23;;;15.70;43.00;;;;;;5017304;28;20448;-82
2021/03/31 08:52:14;;;;;;;12.50;8.48;;;15.80;43.00;;;;;;5012274;28;20450;-78
2021/03/31 08:54:43;;;;;;;57.97;11.93;;;16.10;42.90;;;;;;5008067;28;20206;-79
2021/03/31 08:57:12;;;;;;;56.63;11.73;;;16.20;42.70;;;;;;5027857;28;20456;-79
2021/03/31 08:59:42;;;;;;;20.30;8.55;;;16.50;42.70;;;;;;5007913;28;20518;-84
2021/03/31 09:02:09;;;;;;;39.73;10.83;;;16.60;42.50;;;;;;5008110;28;20201;-80
2021/03/31 09:04:36;;;;;;;23.87;10.27;;;16.80;42.50;;;;;;5008568;28;20450;-80
2021/03/31 09:07:04;;;;;;;14.48;8.85;;;17.00;42.40;;;;;;5020019;28;20542;-84
2021/03/31 09:09:35;;;;;;;15.43;9.00;;;17.20;42.30;;;;;;5024873;28;20219;-82
2021/03/31 09:12:03;;;;;;;13.13;10.00;;;17.40;42.10;;;;;;5029787;28;20458;-84
2021/03/31 09:14:30;;;;;;;19.77;9.90;;;17.50;41.90;;;;;;5025578;28;20462;-79
2021/03/31 09:17:00;;;;;;;14.90;8.87;;;17.50;42.10;;;;;;5007272;28;20484;-79
2021/03/31 09:19:29;;;;;;;11.27;9.07;;;17.70;41.60;;;;;;5001679;28;20512;-77
2021/03/31 09:21:56;;;;;;;22.87;9.60;;;17.70;41.40;;;;;;5005155;28;20461;-77
2021/03/31 09:24:23;;;;;;;13.07;10.20;;;17.80;41.50;;;;;;4999619;28;20969;-80
2021/03/31 09:26:57;;;;;;;14.45;9.13;;;17.90;41.20;;;;;;5010811;28;20475;-78
2021/03/31 09:29:25;;;;;;;14.57;8.97;;;17.90;41.10;;;;;;5013528;28;20215;-79
2021/03/31 09:31:52;;;;;;;12.60;9.60;;;18.10;40.80;;;;;;5004125;28;20462;-81
2021/03/31 09:34:19;;;;;;;14.00;9.53;;;18.30;40.80;;;;;;5003065;28;20449;-79
2021/03/31 09:36:58;;;;;;;14.80;7.83;;;18.40;40.20;;;;;;5005072;28;21283;-85
2021/03/31 09:39:47;;;;;;;15.73;8.93;;;18.50;40.10;;;;;;5011735;28;20458;-80
2021/03/31 09:42:17;;;;;;;12.10;8.43;;;18.60;40.00;;;;;;5012335;28;20463;-79
2021/03/31 09:44:44;;;;;;;21.67;9.27;;;18.70;40.00;;;;;;5009799;28;20930;-81
2021/03/31 09:47:11;;;;;;;12.20;8.10;;;18.70;39.80;;;;;;5007843;28;21284;-79
2021/03/31 09:49:39;;;;;;;10.67;7.07;;;18.90;39.80;;;;;;5010846;28;20462;-81
2021/03/31 09:52:08;;;;;;;17.50;7.97;;;18.90;39.50;;;;;;5014588;28;20522;-82
2021/03/31 09:54:35;;;;;;;14.37;8.50;;;19.20;39.90;;;;;;5015066;28;20497;-82
2021/03/31 09:57:01;;;;;;;22.43;8.20;;;19.30;39.50;;;;;;5021042;28;20453;-83
2021/03/31 09:59:29;;;;;;;15.37;9.10;;;19.30;39.40;;;;;;5015539;28;20456;-82
2021/03/31 10:01:55;;;;;;;15.23;8.50;;;19.30;39.30;;;;;;5019880;28;20491;-83
2021/03/31 10:04:22;;;;;;;14.17;8.90;;;19.30;39.40;;;;;;5013527;28;20467;-82
2021/03/31 10:07:07;;;;;;;12.67;8.37;;;19.40;39.50;;;;;;5009743;28;20879;-80
2021/03/31 10:09:39;;;;;;;15.00;8.53;;;19.50;38.90;;;;;;5015785;28;20498;-79
2021/03/31 10:12:07;;;;;;;11.23;8.67;;;19.50;39.00;;;;;;5019156;28;20463;-80
2021/03/31 10:14:42;;;;;;;10.73;8.00;;;19.50;38.90;;;;;;5016511;28;20498;-81
2021/03/31 10:17:09;;;;;;;11.73;7.93;;;19.60;38.80;;;;;;5015985;28;20546;-82
2021/03/31 10:19:36;;;;;;;11.80;8.33;;;19.80;38.70;;;;;;5019611;28;20447;-80
2021/03/31 10:22:05;;;;;;;13.57;8.40;;;19.90;38.20;;;;;;5022238;28;20485;-83
2021/03/31 10:24:36;;;;;;;8.67;7.60;;;19.90;38.10;;;;;;5011474;28;20304;-82
2021/03/31 10:27:03;;;;;;;17.73;9.67;;;20.00;38.00;;;;;;5018682;28;20487;-83
2021/03/31 10:29:30;;;;;;;11.18;8.27;;;20.00;37.70;;;;;;5020752;28;20446;-80
2021/03/31 10:31:58;;;;;;;12.40;9.33;;;19.90;37.40;;;;;;5012424;28;20328;-81
2021/03/31 10:34:39;;;;;;;12.10;8.13;;;20.00;37.70;;;;;;5017005;28;20826;-82
2021/03/31 10:37:10;;;;;;;13.05;9.10;;;20.10;37.20;;;;;;5012180;28;20787;-81
2021/03/31 10:48:31;;;;;;;14.57;9.67;;;20.70;36.60;;;;;;5016265;28;20502;-81
2021/03/31 10:51:02;;;;;;;9.90;8.23;;;20.40;36.00;;;;;;5022340;28;20459;-80
2021/03/31 10:53:35;;;;;;;11.17;9.10;;;20.50;36.30;;;;;;5012129;28;20464;-81
2021/03/31 10:56:04;;;;;;;13.27;9.17;;;20.70;36.50;;;;;;5018243;28;20811;-85
2021/03/31 10:58:30;;;;;;;12.53;8.43;;;20.60;36.30;;;;;;5020354;28;20452;-80
2021/03/31 11:00:57;;;;;;;13.37;9.43;;;20.40;36.40;;;;;;5024007;28;20866;-81
2021/03/31 11:03:24;;;;;;;12.13;8.80;;;20.50;36.20;;;;;;5018686;28;20502;-80
2021/03/31 11:05:51;;;;;;;14.63;10.47;;;20.60;36.30;;;;;;5034232;28;20830;-84
2021/03/31 11:08:18;;;;;;;11.03;9.00;;;20.80;36.40;;;;;;5018976;28;20480;-81
2021/03/31 11:10:44;;;;;;;12.80;9.07;;;21.00;36.40;;;;;;5022621;28;20456;-82
2021/03/31 11:13:11;;;;;;;13.00;8.60;;;21.20;36.70;;;;;;5023754;28;20460;-81
2021/03/31 11:15:38;;;;;;;16.93;9.80;;;21.40;36.40;;;;;;5034439;28;20479;-81
2021/03/31 11:18:16;;;;;;;11.67;9.10;;;21.50;36.40;;;;;;5021567;28;20464;-80
2021/03/31 11:26:08;;;;;;;12.00;8.20;;;21.80;36.10;;;;;;5019318;28;20456;-80
2021/03/31 11:28:39;;;;;;;13.90;8.10;;;21.70;35.80;;;;;;5016191;28;20476;-81
2021/03/31 11:31:06;;;;;;;12.43;8.10;;;21.50;35.90;;;;;;5026091;28;20469;-81
2021/03/31 11:33:32;;;;;;;9.30;7.40;;;21.60;35.70;;;;;;5036531;28;20455;-83
2021/03/31 11:35:59;;;;;;;13.70;8.10;;;21.60;36.10;;;;;;5018625;28;20502;-80
2021/03/31 11:38:26;;;;;;;17.33;8.57;;;21.50;35.50;;;;;;5018163;28;20458;-80
2021/03/31 11:40:53;;;;;;;11.03;6.83;;;21.70;35.30;;;;;;5020220;28;20471;-79
2021/03/31 11:43:19;;;;;;;9.90;7.93;;;21.80;35.20;;;;;;5025077;28;20467;-80
2021/03/31 11:45:47;;;;;;;14.57;10.30;;;21.80;35.00;;;;;;5031338;28;20462;-79
2021/03/31 11:48:14;;;;;;;12.33;7.90;;;21.80;34.90;;;;;;5024418;28;20472;-79
2021/03/31 11:50:41;;;;;;;14.57;9.10;;;21.80;35.00;;;;;;5016212;28;20552;-80
2021/03/31 11:53:07;;;;;;;11.40;7.83;;;21.90;35.00;;;;;;5022512;28;20531;-81
2021/03/31 11:55:35;;;;;;;9.87;7.30;;;22.00;34.90;;;;;;5019307;28;20524;-79
2021/03/31 11:58:02;;;;;;;11.47;7.93;;;22.10;35.00;;;;;;5012883;28;20467;-84
2021/03/31 12:00:31;;;;;;;10.20;8.00;;;22.00;35.00;;;;;;5013846;28;20547;-79
2021/03/31 12:02:58;;;;;;;13.93;7.37;;;22.20;35.20;;;;;;5021612;28;20915;-79
2021/03/31 12:05:24;;;;;;;8.00;6.77;;;22.10;35.00;;;;;;5020886;28;20532;-79
2021/03/31 12:08:01;;;;;;;8.80;6.80;;;22.10;34.90;;;;;;5019207;28;20453;-80
2021/03/31 12:10:28;;;;;;;9.43;7.33;;;22.20;35.00;;;;;;5012450;28;20468;-80
2021/03/31 12:12:54;;;;;;;7.80;6.23;;;22.40;34.40;;;;;;5014042;28;20849;-82
2021/03/31 12:15:21;;;;;;;26.42;9.23;;;22.70;34.40;;;;;;5006106;28;20483;-80
2021/03/31 12:17:47;;;;;;;12.73;7.20;;;22.70;34.60;;;;;;5009131;28;20204;-79
2021/03/31 12:20:16;;;;;;;9.63;6.67;;;22.80;34.50;;;;;;5009119;28;21130;-79
2021/03/31 12:22:45;;;;;;;10.03;7.07;;;22.90;33.90;;;;;;5004307;28;20480;-82
2021/03/31 12:25:12;;;;;;;8.07;6.47;;;22.80;33.90;;;;;;5007685;28;20930;-79
2021/03/31 12:27:40;;;;;;;8.73;6.50;;;22.70;33.70;;;;;;5005238;28;20446;-80
2021/03/31 12:30:09;;;;;;;9.10;6.90;;;22.80;34.00;;;;;;5009342;28;20687;-78
2021/03/31 12:32:36;;;;;;;12.20;6.57;;;22.70;32.80;;;;;;4999642;28;20787;-79
2021/03/31 12:35:04;;;;;;;9.27;6.00;;;22.80;33.00;;;;;;4997603;28;20487;-79
2021/03/31 12:37:31;;;;;;;15.70;6.83;;;22.80;32.90;;;;;;5003123;28;20578;-77
2021/03/31 12:39:58;;;;;;;9.43;6.50;;;22.60;33.20;;;;;;5000959;28;21038;-77
2021/03/31 12:42:25;;;;;;;8.23;5.97;;;22.60;33.20;;;;;;5009158;28;20961;-78
2021/03/31 12:44:52;;;;;;;9.40;6.30;;;22.90;32.90;;;;;;5001444;28;20451;-82
2021/03/31 12:47:19;;;;;;;7.20;6.37;;;22.80;33.10;;;;;;5005897;28;20448;-78
2021/03/31 12:49:47;;;;;;;10.80;6.67;;;22.60;33.10;;;;;;5008266;28;20448;-79
2021/03/31 12:52:15;;;;;;;9.13;6.53;;;22.60;32.90;;;;;;5009781;28;20550;-80
2021/03/31 12:54:48;;;;;;;22.67;7.60;;;22.70;32.60;;;;;;5010452;28;20506;-79
2021/03/31 12:57:15;;;;;;;8.40;6.17;;;22.50;32.10;;;;;;5003319;28;20601;-78
2021/03/31 12:59:41;;;;;;;9.23;6.23;;;22.50;32.00;;;;;;5015311;28;20451;-80
2021/03/31 13:02:09;;;;;;;13.33;6.30;;;22.60;32.30;;;;;;5016681;28;20461;-81
2021/03/31 13:04:36;;;;;;;7.77;6.00;;;22.80;32.40;;;;;;5015187;28;20444;-81
2021/03/31 13:07:03;;;;;;;10.63;6.40;;;22.90;31.90;;;;;;5014641;28;20462;-79
2021/03/31 13:09:30;;;;;;;8.33;5.33;;;23.00;32.30;;;;;;5014179;28;20550;-80
2021/03/31 13:11:59;;;;;;;10.10;5.50;;;23.10;32.10;;;;;;5026970;28;20463;-79
2021/03/31 13:17:08;;;;;;;6.87;5.60;;;23.20;31.80;;;;;;5016894;28;21152;-78
2021/03/31 13:22:28;;;;;;;8.73;5.77;;;22.90;31.20;;;;;;5001476;28;20461;-78
2021/03/31 13:25:04;;;;;;;8.77;5.37;;;22.90;31.10;;;;;;4999876;28;20447;-78
2021/03/31 13:30:25;;;;;;;5.80;4.63;;;23.10;31.50;;;;;;5020326;28;20871;-79
2021/03/31 13:32:56;;;;;;;9.00;5.50;;;22.90;31.30;;;;;;5006587;28;20483;-80
2021/03/31 13:35:26;;;;;;;8.57;5.03;;;23.00;31.50;;;;;;5003989;28;20507;-78
2021/03/31 13:37:54;;;;;;;10.90;4.83;;;23.00;31.70;;;;;;5008101;28;20499;-79